Time;durP1;ratioP1;P1;durP2;ratioP2;P2;SDS_P1;SDS_P2;PMS_P1;PMS_P2;Temp;Humidity;BMP_temperature;BMP_pressure;BME280_temperature;BME280_humidity;BME280_pressure;Samples;Min_cycle;Max_cycle;Signal;HPM_P1;HPM_P2
2023/03/25 00:01:17;;;;;;;42.27;25.53;;;;;;;11.30;62.12;99981.09;124793;1099;104271;-72
2023/03/25 00:03:49;;;;;;;45.03;25.40;;;;;;;11.26;61.89;99976.61;124818;1099;101813;-72
2023/03/25 00:06:20;;;;;;;43.50;25.43;;;;;;;11.25;62.02;99982.70;124998;1099;104178;-72
2023/03/25 00:08:52;;;;;;;43.30;26.23;;;;;;;11.27;61.95;99981.02;124786;1098;104060;-71
2023/03/25 00:11:23;;;;;;;45.20;26.17;;;;;;;11.25;61.71;99975.73;124807;1099;102296;-72
2023/03/25 00:13:54;;;;;;;46.27;26.80;;;;;;;11.24;61.86;99970.44;124857;1099;104259;-72
2023/03/25 00:16:26;;;;;;;45.40;26.53;;;;;;;11.20;62.46;99966.83;124835;1099;104165;-71
2023/03/25 00:18:58;;;;;;;44.67;26.33;;;;;;;11.14;62.47;99970.21;124911;1099;104287;-71
2023/03/25 00:21:32;;;;;;;42.67;26.57;;;;;;;11.12;62.12;99963.13;124846;1099;104255;-71
2023/03/25 00:24:03;;;;;;;46.13;27.37;;;;;;;11.08;62.35;99967.43;124870;1099;104198;-71
2023/03/25 00:26:34;;;;;;;46.93;26.70;;;;;;;11.07;62.44;99959.52;124838;1099;104223;-70
2023/03/25 00:29:06;;;;;;;44.17;25.27;;;;;;;11.05;62.30;99954.23;124894;1099;104201;-71
2023/03/25 00:31:37;;;;;;;42.77;25.27;;;;;;;11.06;62.02;99957.73;124378;1099;102534;-71
2023/03/25 00:34:13;;;;;;;40.47;24.30;;;;;;;11.07;62.12;99951.64;124787;1099;104172;-71
2023/03/25 00:36:44;;;;;;;38.17;23.80;;;;;;;11.10;62.12;99949.97;124330;1099;102316;-70
2023/03/25 00:39:15;;;;;;;38.30;22.87;;;;;;;11.12;62.02;99953.51;124778;1099;104217;-71
2023/03/25 00:41:47;;;;;;;41.47;23.57;;;;;;;11.13;62.02;99949.16;124787;1099;101781;-71
2023/03/25 00:44:18;;;;;;;42.87;24.00;;;;;;;11.14;62.06;99943.05;124784;1099;104309;-70
2023/03/25 00:46:49;;;;;;;39.80;23.40;;;;;;;11.09;62.11;99942.92;124825;1098;104629;-71
2023/03/25 00:49:23;;;;;;;39.17;23.80;;;;;;;11.05;61.91;99945.47;124764;1099;101950;-72
2023/03/25 00:51:53;;;;;;;;;;;;;;;10.97;62.22;99948.78;124844;1098;102395;-70
2023/03/25 00:54:25;;;;;;;42.17;22.63;;;;;;;10.95;62.21;99944.33;124897;1099;102226;-71
2023/03/25 00:56:56;;;;;;;37.43;22.90;;;;;;;10.93;62.13;99936.41;124800;1099;104239;-71
2023/03/25 00:59:27;;;;;;;41.53;23.07;;;;;;;10.90;62.59;99936.34;124349;1099;104050;-70
2023/03/25 01:01:59;;;;;;;38.70;22.73;;;;;;;10.89;62.61;99938.92;124870;1099;104198;-71
2023/03/25 01:04:30;;;;;;;41.57;25.23;;;;;;;10.84;62.62;99932.68;124390;1099;104190;-70
2023/03/25 01:07:02;;;;;;;42.20;25.13;;;;;;;10.76;63.75;99924.61;124792;1099;102848;-71
2023/03/25 01:09:33;;;;;;;40.30;23.73;;;;;;;10.70;63.24;99927.95;124781;1099;104195;-71
2023/03/25 01:12:05;;;;;;;43.13;24.93;;;;;;;10.66;62.89;99930.45;124803;1099;104198;-71
2023/03/25 01:14:36;;;;;;;42.20;24.27;;;;;;;10.67;63.38;99927.88;124708;1099;104188;-71
2023/03/25 01:17:08;;;;;;;38.97;22.77;;;;;;;10.67;63.23;99922.63;124775;1099;101858;-71
2023/03/25 01:19:39;;;;;;;40.17;24.17;;;;;;;10.66;63.08;99920.87;124804;1099;101846;-71
2023/03/25 01:22:10;;;;;;;42.37;24.73;;;;;;;10.65;63.89;99912.95;124832;1098;101958;-71
2023/03/25 01:24:42;;;;;;;42.20;24.87;;;;;;;10.64;63.38;99913.80;124739;1099;102143;-71
2023/03/25 01:27:13;;;;;;;41.47;25.33;;;;;;;10.60;63.42;99900.59;124741;1099;101929;-70
2023/03/25 01:29:44;;;;;;;43.77;25.13;;;;;;;10.58;63.76;99907.55;124671;1099;110318;-72
2023/03/25 01:32:15;;;;;;;40.40;24.87;;;;;;;10.53;63.53;99898.68;124824;1099;102198;-71
2023/03/25 01:34:47;;;;;;;40.10;24.30;;;;;;;10.50;63.59;99898.59;124547;1099;102269;-72
2023/03/25 01:37:19;;;;;;;43.33;24.73;;;;;;;10.53;63.55;99895.14;124822;1099;104175;-71
2023/03/25 01:39:50;;;;;;;41.73;24.33;;;;;;;10.51;64.39;99897.73;124827;1099;104236;-71
2023/03/25 01:42:21;;;;;;;43.33;25.00;;;;;;;10.50;64.16;99897.69;124837;1099;104290;-71
2023/03/25 01:45:27;;;;;;;39.50;23.37;;;;;;;10.47;64.12;99897.61;124782;1099;101962;-71
2023/03/25 01:48:09;;;;;;;42.57;25.33;;;;;;;10.41;63.78;99898.36;124756;1099;104302;-70
2023/03/25 01:50:44;;;;;;;39.60;24.63;;;;;;;10.39;63.90;99894.78;124784;1099;101980;-71
2023/03/25 01:53:16;;;;;;;42.63;24.83;;;;;;;10.39;64.19;99894.78;124614;1099;104149;-71
2023/03/25 01:55:51;;;;;;;40.20;25.25;;;;;;;10.37;64.31;99892.11;124847;1099;101922;-72
2023/03/25 01:58:26;;;;;;;40.67;24.67;;;;;;;10.38;64.08;99888.66;124721;1099;104197;-71
2023/03/25 02:00:57;;;;;;;40.83;24.93;;;;;;;10.36;63.98;99877.25;124765;1099;104166;-71
2023/03/25 02:03:35;;;;;;;42.23;25.03;;;;;;;10.35;63.73;99875.46;124803;1099;104431;-71
2023/03/25 02:06:14;;;;;;;42.60;24.77;;;;;;;10.30;64.01;99879.67;124413;1099;104185;-72
2023/03/25 02:08:46;;;;;;;40.17;24.50;;;;;;;10.22;64.23;99873.31;124756;1099;103260;-71
2023/03/25 02:11:17;;;;;;;38.63;23.83;;;;;;;10.20;64.29;99868.03;124863;1099;104191;-71
2023/03/25 02:13:48;;;;;;;41.03;24.30;;;;;;;10.19;63.75;99866.27;124434;1099;101991;-72
2023/03/25 02:16:33;;;;;;;44.93;23.87;;;;;;;10.18;64.29;99869.73;124753;1099;104166;-71
2023/03/25 02:19:12;;;;;;;;;;;;;;;10.15;64.15;99858.28;124840;1099;104169;-71
2023/03/25 02:22:13;;;;;;;42.13;25.63;;;;;;;10.14;64.58;99859.12;124792;1099;104188;-70
2023/03/25 02:25:21;;;;;;;41.00;24.47;;;;;;;10.12;64.54;99847.71;124794;1099;104242;-71
2023/03/25 02:28:10;;;;;;;39.57;25.20;;;;;;;10.08;64.64;99847.63;124499;1099;104335;-70
2023/03/25 02:31:16;;;;;;;42.60;25.63;;;;;;;10.05;64.14;99838.77;124749;1099;104160;-71
2023/03/25 02:34:17;;;;;;;48.27;25.67;;;;;;;9.98;65.35;99840.34;124685;1099;104233;-71
2023/03/25 02:37:32;;;;;;;42.87;25.50;;;;;;;9.95;64.94;99836.77;124875;1099;104195;-71
2023/03/25 02:40:06;;;;;;;43.92;25.97;;;;;;;9.94;64.36;99832.36;124633;1099;104191;-70
2023/03/25 02:42:45;;;;;;;42.07;24.90;;;;;;;9.94;64.83;99842.84;124572;1099;104361;-70
2023/03/25 02:45:24;;;;;;;42.57;25.67;;;;;;;9.92;64.40;99842.80;124582;1099;104328;-70
2023/03/25 02:48:01;;;;;;;45.87;26.20;;;;;;;9.90;64.46;99834.89;124387;1099;104287;-70
2023/03/25 02:50:38;;;;;;;43.43;25.23;;;;;;;9.89;65.08;99842.71;124831;1099;101848;-72
2023/03/25 02:53:14;;;;;;;42.63;25.43;;;;;;;9.91;65.10;99846.28;124924;1098;102174;-70
2023/03/25 02:55:48;;;;;;;42.80;25.57;;;;;;;9.89;64.84;99843.63;124554;1099;102003;-71
2023/03/25 02:58:21;;;;;;;41.53;25.55;;;;;;;9.89;65.13;99841.00;124885;1099;101916;-71
2023/03/25 03:00:57;;;;;;;40.33;24.35;;;;;;;9.89;64.99;99846.24;124877;1099;101903;-71
2023/03/25 03:03:29;;;;;;;42.60;26.13;;;;;;;9.90;65.54;99847.99;124386;1099;101927;-70
2023/03/25 03:06:03;;;;;;;;;;;;;;;9.83;65.35;99846.07;124375;1099;104178;-71
2023/03/25 03:08:59;;;;;;;39.55;24.35;;;;;;;9.80;64.93;99842.45;124847;1099;104192;-70
2023/03/25 03:11:38;;;;;;;45.23;25.50;;;;;;;9.78;65.42;99846.77;124695;1099;103232;-70
2023/03/25 03:14:27;;;;;;;38.87;24.67;;;;;;;9.77;65.39;99852.84;124767;1099;103680;-70
2023/03/25 03:17:07;;;;;;;39.33;23.97;;;;;;;9.76;65.37;99848.47;124799;1099;102041;-71
2023/03/25 03:19:45;;;;;;;42.37;26.43;;;;;;;9.77;65.24;99843.27;124817;1099;103407;-71
2023/03/25 03:22:34;;;;;;;40.47;25.63;;;;;;;9.78;65.49;99838.91;124780;1098;118082;-71
2023/03/25 03:25:11;;;;;;;41.70;25.47;;;;;;;9.79;65.12;99836.34;124782;1099;104338;-71
2023/03/25 03:27:49;;;;;;;42.43;25.80;;;;;;;9.78;65.68;99841.53;124835;1099;101871;-71
2023/03/25 03:30:28;;;;;;;41.23;25.00;;;;;;;9.77;65.58;99834.50;124827;1098;104248;-70
2023/03/25 03:33:08;;;;;;;41.93;25.50;;;;;;;9.76;64.82;99836.25;124452;1099;101995;-70
2023/03/25 03:35:48;;;;;;;41.30;26.03;;;;;;;9.73;65.96;99837.91;124770;1099;102502;-71
2023/03/25 03:38:24;;;;;;;42.13;25.83;;;;;;;9.73;65.20;99843.14;124805;1099;104255;-71
2023/03/25 03:41:00;;;;;;;44.77;26.07;;;;;;;9.73;65.32;99835.28;124757;1098;102252;-70
2023/03/25 03:43:36;;;;;;;42.80;25.93;;;;;;;9.67;65.98;99830.74;124673;1099;104239;-71
2023/03/25 03:46:12;;;;;;;42.23;25.97;;;;;;;9.63;66.03;99837.64;124896;1099;103381;-70
2023/03/25 03:48:49;;;;;;;46.75;26.95;;;;;;;9.58;66.10;99841.83;124771;1099;104166;-71
2023/03/25 03:51:23;;;;;;;39.60;26.17;;;;;;;9.58;65.85;99833.09;124771;1099;104176;-70
2023/03/25 03:53:59;;;;;;;42.13;26.07;;;;;;;9.57;66.08;99839.17;124358;1099;104181;-71
2023/03/25 03:56:36;;;;;;;45.63;27.13;;;;;;;9.53;66.47;99836.46;124812;1099;101881;-71
2023/03/25 03:59:14;;;;;;;41.30;26.00;;;;;;;9.54;65.72;99834.75;124839;1099;104189;-71
2023/03/25 04:01:52;;;;;;;43.87;26.27;;;;;;;9.58;66.39;99831.36;124788;1099;102402;-70
2023/03/25 04:04:25;;;;;;;43.23;25.60;;;;;;;9.61;66.25;99828.83;124765;1099;104268;-70
2023/03/25 04:07:03;;;;;;;44.90;25.70;;;;;;;9.61;66.32;99818.34;124865;1099;101874;-71
2023/03/25 04:09:42;;;;;;;41.80;26.30;;;;;;;9.63;66.41;99819.30;124893;1098;104185;-70
2023/03/25 04:12:17;;;;;;;42.93;25.17;;;;;;;9.62;65.85;99819.26;124785;1099;101955;-70
2023/03/25 04:14:49;;;;;;;43.67;26.37;;;;;;;9.60;66.14;99819.21;124827;1099;102216;-72
2023/03/25 04:17:20;;;;;;;42.73;25.97;;;;;;;9.61;66.56;99818.34;124919;1099;104179;-71
2023/03/25 04:19:52;;;;;;;41.30;24.63;;;;;;;9.63;65.94;99818.39;124889;1099;104280;-70
2023/03/25 04:22:23;;;;;;;41.45;26.05;;;;;;;9.63;66.09;99813.16;124877;1099;101925;-70
2023/03/25 04:24:55;;;;;;;41.37;25.10;;;;;;;9.65;66.10;99819.34;124882;1099;104198;-70
2023/03/25 04:27:28;;;;;;;45.03;24.97;;;;;;;9.69;66.28;99823.80;124918;1099;101932;-71
2023/03/25 04:30:00;;;;;;;41.02;25.68;;;;;;;9.74;66.47;99824.84;124846;1099;104099;-71
2023/03/25 04:32:31;;;;;;;41.27;24.80;;;;;;;9.77;66.10;99818.78;124783;1099;104239;-70
2023/03/25 04:35:03;;;;;;;43.70;26.40;;;;;;;9.82;66.91;99823.32;124906;1099;104211;-71
2023/03/25 04:37:35;;;;;;;48.27;28.03;;;;;;;9.85;66.43;99819.91;124914;1099;104252;-70
2023/03/25 04:40:12;;;;;;;49.53;31.10;;;;;;;9.83;66.56;99827.73;124957;1099;104307;-71
2023/03/25 04:42:45;;;;;;;47.03;30.20;;;;;;;9.84;66.26;99816.38;124590;1099;104159;-71
2023/03/25 04:45:16;;;;;;;48.57;30.50;;;;;;;9.93;66.60;99821.00;124887;1099;104288;-70
2023/03/25 04:47:52;;;;;;;48.00;30.90;;;;;;;9.97;66.29;99822.87;124906;1099;102235;-71
2023/03/25 04:50:26;;;;;;;49.63;32.37;;;;;;;10.00;66.81;99822.95;124878;1099;104194;-70
2023/03/25 04:52:59;;;;;;;46.73;30.12;;;;;;;10.04;66.28;99814.30;124458;1099;104182;-70
2023/03/25 04:55:30;;;;;;;51.07;32.27;;;;;;;10.10;66.74;99805.73;124852;1099;104192;-70
2023/03/25 04:58:01;;;;;;;48.10;29.80;;;;;;;10.21;66.35;99806.01;124923;1099;104175;-71
2023/03/25 05:00:33;;;;;;;46.15;29.40;;;;;;;10.33;66.60;99806.36;124851;1099;104242;-71
2023/03/25 05:03:04;;;;;;;41.23;26.93;;;;;;;10.43;66.28;99808.34;124905;1099;104227;-70
2023/03/25 05:05:35;;;;;;;42.07;26.73;;;;;;;10.55;66.51;99806.88;124894;1099;104271;-70
2023/03/25 05:08:07;;;;;;;43.53;26.13;;;;;;;10.65;66.79;99803.63;124440;1099;104172;-70
2023/03/25 05:10:39;;;;;;;40.00;25.37;;;;;;;10.76;66.29;99791.65;124388;1099;101914;-70
2023/03/25 05:13:10;;;;;;;41.40;26.33;;;;;;;10.83;66.41;99794.42;124832;1099;104217;-70
2023/03/25 05:15:42;;;;;;;40.13;24.73;;;;;;;10.90;66.44;99793.72;124471;1099;104332;-71
2023/03/25 05:18:15;;;;;;;37.50;24.27;;;;;;;10.93;66.39;99793.80;124906;1099;101894;-71
2023/03/25 05:20:49;;;;;;;40.48;25.23;;;;;;;10.95;66.33;99792.98;124855;1099;104753;-72
2023/03/25 05:23:22;;;;;;;39.37;24.60;;;;;;;10.97;66.16;99790.40;124859;1098;101906;-72
2023/03/25 05:25:55;;;;;;;39.30;25.23;;;;;;;11.05;66.24;99791.45;124895;1098;101833;-71
2023/03/25 05:28:26;;;;;;;40.87;24.80;;;;;;;11.12;66.27;99792.45;124861;1099;104172;-70
2023/03/25 05:30:57;;;;;;;41.15;24.05;;;;;;;11.15;66.06;99798.66;124776;1099;102345;-70
2023/03/25 05:33:29;;;;;;;39.63;23.80;;;;;;;11.21;65.90;99792.66;124789;1099;104227;-71
2023/03/25 05:36:00;;;;;;;38.70;24.23;;;;;;;11.29;66.04;99798.08;124824;1099;104291;-72
2023/03/25 05:38:32;;;;;;;38.57;23.43;;;;;;;11.36;65.99;99788.59;124930;1099;104243;-71
2023/03/25 05:41:03;;;;;;;37.30;22.57;;;;;;;11.42;65.86;99792.25;124910;1099;104277;-71
2023/03/25 05:43:34;;;;;;;41.10;23.27;;;;;;;11.49;65.67;99791.50;124882;1099;104271;-73
2023/03/25 05:46:06;;;;;;;38.30;23.33;;;;;;;11.57;65.81;99788.16;125033;1098;104163;-73
2023/03/25 05:48:40;;;;;;;35.60;22.13;;;;;;;11.64;65.72;99795.28;125033;1099;102087;-72
2023/03/25 05:51:15;;;;;;;38.00;22.42;;;;;;;11.70;65.50;99787.52;124976;1099;104210;-72
2023/03/25 05:53:48;;;;;;;34.20;19.90;;;;;;;11.75;65.59;99793.78;124618;1099;104217;-73
2023/03/25 05:56:23;;;;;;;31.03;19.40;;;;;;;11.83;65.37;99783.41;124914;1099;102275;-72
2023/03/25 05:58:55;;;;;;;30.93;18.37;;;;;;;11.86;65.27;99780.84;124924;1099;104191;-74
2023/03/25 06:01:26;;;;;;;32.87;18.43;;;;;;;11.91;65.05;99779.18;124941;1099;104344;-72
2023/03/25 06:03:59;;;;;;;33.00;17.93;;;;;;;11.99;65.27;99780.23;124605;1099;104255;-71
2023/03/25 06:06:32;;;;;;;30.70;17.63;;;;;;;12.10;64.85;99785.69;124562;1098;104284;-71
2023/03/25 06:09:04;;;;;;;35.07;17.77;;;;;;;12.23;65.18;99785.06;124876;1099;102057;-71
2023/03/25 06:11:45;;;;;;;30.30;17.10;;;;;;;12.38;65.10;99788.80;124785;1099;104495;-72
2023/03/25 06:14:16;;;;;;;28.23;16.33;;;;;;;12.58;64.93;99786.51;124794;1099;104172;-70
2023/03/25 06:16:49;;;;;;;28.83;16.20;;;;;;;12.77;64.88;99783.28;125066;1099;104188;-70
2023/03/25 06:19:25;;;;;;;27.57;16.77;;;;;;;12.97;64.93;99787.11;124787;1098;104201;-71
2023/03/25 06:21:56;;;;;;;28.87;15.67;;;;;;;13.12;64.58;99785.56;124831;1099;101947;-72
2023/03/25 06:24:27;;;;;;;28.47;15.03;;;;;;;13.27;64.88;99790.14;124869;1099;104185;-71
2023/03/25 06:26:59;;;;;;;28.13;15.37;;;;;;;13.38;64.00;99789.44;125225;1098;101833;-71
2023/03/25 06:29:30;;;;;;;27.40;14.20;;;;;;;13.50;63.79;99779.05;124788;1098;104242;-70
2023/03/25 06:32:02;;;;;;;27.10;14.17;;;;;;;13.62;64.01;99779.20;124380;1099;104293;-71
2023/03/25 06:34:33;;;;;;;25.67;14.20;;;;;;;13.75;64.24;99776.71;124819;1099;102323;-72
2023/03/25 06:37:05;;;;;;;25.13;13.00;;;;;;;13.84;63.27;99772.41;124865;1099;101968;-71
2023/03/25 06:39:37;;;;;;;24.83;13.23;;;;;;;13.93;63.52;99769.00;124850;1099;101839;-70
2023/03/25 06:42:14;;;;;;;23.33;13.40;;;;;;;14.00;62.48;99768.17;124727;1098;103114;-72
2023/03/25 06:45:06;;;;;;;23.20;12.93;;;;;;;14.07;63.15;99765.59;124809;1099;104328;-72
2023/03/25 06:48:01;;;;;;;26.77;13.57;;;;;;;14.10;62.92;99761.26;124437;1099;102067;-71
2023/03/25 06:50:33;;;;;;;23.67;12.70;;;;;;;14.09;61.64;99759.48;124788;1099;104248;-71
2023/03/25 06:53:05;;;;;;;27.87;13.70;;;;;;;14.08;61.78;99764.74;124869;1099;104310;-71
2023/03/25 06:55:37;;;;;;;24.73;13.13;;;;;;;14.14;61.50;99773.59;124857;1099;104182;-71
2023/03/25 06:58:08;;;;;;;24.95;13.00;;;;;;;14.22;61.78;99772.79;124703;1099;102013;-72
2023/03/25 07:00:40;;;;;;;23.40;12.90;;;;;;;14.25;61.63;99764.91;124827;1099;104360;-70
2023/03/25 07:03:11;;;;;;;21.33;11.90;;;;;;;14.33;60.54;99774.64;124594;1099;104347;-71
2023/03/25 07:05:44;;;;;;;21.70;11.77;;;;;;;14.34;61.52;99776.41;124763;1099;102195;-70
2023/03/25 07:08:15;;;;;;;25.73;12.80;;;;;;;14.35;60.90;99782.56;124903;1097;102040;-72
2023/03/25 07:10:46;;;;;;;21.50;12.20;;;;;;;14.36;60.96;99784.34;124877;1099;104252;-72
2023/03/25 07:13:17;;;;;;;22.63;12.47;;;;;;;14.40;60.74;99772.95;124474;1099;104326;-70
2023/03/25 07:15:49;;;;;;;22.50;12.17;;;;;;;14.51;60.54;99767.77;124777;1099;104270;-71
2023/03/25 07:18:20;;;;;;;25.50;12.87;;;;;;;14.68;60.54;99763.52;124843;1098;104166;-70
2023/03/25 07:20:51;;;;;;;25.17;13.60;;;;;;;14.87;59.84;99764.52;124660;1099;104178;-70
2023/03/25 07:23:23;;;;;;;26.30;13.07;;;;;;;15.08;59.68;99763.78;125951;1098;104241;-73
2023/03/25 07:25:55;;;;;;;21.47;11.47;;;;;;;15.28;59.15;99741.84;124832;1099;104226;-71
2023/03/25 07:28:27;;;;;;;21.67;11.63;;;;;;;15.50;59.39;99744.58;124797;1099;104322;-72
2023/03/25 07:31:01;;;;;;;22.37;11.40;;;;;;;15.73;59.03;99740.23;124832;1098;102354;-72
2023/03/25 07:33:32;;;;;;;21.00;10.15;;;;;;;15.93;57.91;99739.44;124912;1099;103154;-70
2023/03/25 07:36:05;;;;;;;19.60;10.10;;;;;;;16.19;57.62;99736.83;124658;1099;102509;-70
2023/03/25 07:38:36;;;;;;;22.63;10.37;;;;;;;16.40;55.96;99727.11;124581;1099;104310;-75
2023/03/25 07:41:10;;;;;;;21.37;10.03;;;;;;;16.60;57.16;99735.05;124829;1099;101924;-72
2023/03/25 07:43:42;;;;;;;17.70;9.85;;;;;;;16.82;57.13;99726.16;124923;1099;104254;-73
2023/03/25 07:46:26;;;;;;;21.80;9.87;;;;;;;16.95;56.46;99731.47;124656;1099;101880;-71
2023/03/25 07:48:57;;;;;;;22.20;9.90;;;;;;;17.01;54.88;99715.55;124995;1099;104172;-71
2023/03/25 07:51:29;;;;;;;26.67;10.20;;;;;;;17.09;54.19;99712.88;124931;1099;101843;-73
2023/03/25 07:54:00;;;;;;;20.77;9.90;;;;;;;17.22;54.74;99704.01;124754;1099;102388;-70
2023/03/25 07:56:31;;;;;;;19.90;9.57;;;;;;;17.33;53.18;99696.01;124841;1098;104166;-71
2023/03/25 07:59:03;;;;;;;19.83;8.80;;;;;;;17.48;53.87;99695.90;124858;1099;104185;-70
2023/03/25 08:01:34;;;;;;;21.43;9.30;;;;;;;17.64;54.08;99695.81;124877;1098;104181;-71
2023/03/25 08:04:06;;;;;;;20.53;9.00;;;;;;;17.79;53.84;99695.72;124794;1099;104186;-70
2023/03/25 08:06:37;;;;;;;22.53;9.27;;;;;;;17.88;52.82;99690.39;124731;1099;104192;-72
2023/03/25 08:09:08;;;;;;;23.35;8.80;;;;;;;17.99;52.96;99690.31;124402;1099;104085;-72
2023/03/25 08:11:40;;;;;;;18.00;8.50;;;;;;;18.15;50.86;99688.41;124456;1099;104188;-72
2023/03/25 08:14:11;;;;;;;17.83;9.27;;;;;;;18.32;51.08;99682.95;124881;1099;104249;-74
2023/03/25 08:16:42;;;;;;;18.07;8.37;;;;;;;18.50;51.67;99671.29;124808;1099;101967;-71
2023/03/25 08:19:14;;;;;;;19.23;8.40;;;;;;;18.63;49.68;99672.91;124796;1099;104367;-71
2023/03/25 08:21:45;;;;;;;19.40;8.65;;;;;;;18.75;47.87;99661.28;124841;1099;102067;-72
2023/03/25 08:24:16;;;;;;;16.57;8.90;;;;;;;18.91;48.40;99654.03;124363;1099;104207;-72
2023/03/25 08:26:48;;;;;;;18.27;8.43;;;;;;;19.07;47.29;99644.08;124931;1099;104277;-74
2023/03/25 08:29:19;;;;;;;21.37;8.70;;;;;;;19.25;49.24;99653.62;124817;1099;103268;-72
2023/03/25 08:31:51;;;;;;;18.00;8.67;;;;;;;19.36;47.77;99654.34;124355;1099;104264;-72
2023/03/25 08:34:23;;;;;;;27.67;8.93;;;;;;;19.47;47.01;99655.98;124845;1098;102314;-72
2023/03/25 08:36:55;;;;;;;21.90;8.33;;;;;;;19.55;45.78;99644.31;124439;1099;101928;-72
2023/03/25 08:39:28;;;;;;;16.67;8.30;;;;;;;19.63;46.67;99648.65;124592;1099;104169;-71
2023/03/25 08:41:59;;;;;;;18.67;8.30;;;;;;;19.72;47.62;99652.05;124834;1099;104290;-71
2023/03/25 08:44:31;;;;;;;14.00;7.43;;;;;;;19.80;47.66;99651.09;124807;1099;104235;-73
2023/03/25 08:47:02;;;;;;;19.10;8.90;;;;;;;19.89;47.03;99645.63;124755;1099;104172;-74
2023/03/25 08:49:33;;;;;;;19.60;8.07;;;;;;;20.03;47.22;99648.06;124786;1099;101817;-73
2023/03/25 08:52:07;;;;;;;15.13;8.17;;;;;;;20.09;46.70;99638.17;124842;1099;104160;-72
2023/03/25 08:54:38;;;;;;;18.50;7.77;;;;;;;20.15;44.68;99633.64;124725;1099;104185;-72
2023/03/25 08:57:09;;;;;;;17.30;8.43;;;;;;;20.23;44.02;99629.08;124796;1099;104227;-72
2023/03/25 08:59:41;;;;;;;21.37;8.50;;;;;;;20.37;45.22;99624.38;124773;1099;104188;-72
2023/03/25 09:02:13;;;;;;;19.67;8.20;;;;;;;20.55;45.59;99636.45;124792;1098;104261;-72
2023/03/25 09:04:44;;;;;;;12.97;7.30;;;;;;;20.70;44.62;99640.66;124843;1099;102494;-72
2023/03/25 09:07:18;;;;;;;16.00;7.40;;;;;;;20.79;43.98;99637.81;124831;1099;104165;-72
2023/03/25 09:09:48;;;;;;;;;;;;;;;20.85;43.55;99633.26;124765;1099;102029;-72
2023/03/25 09:12:19;;;;;;;19.00;8.10;;;;;;;20.89;43.78;99633.16;124810;1099;104238;-72
2023/03/25 09:14:50;;;;;;;17.03;7.60;;;;;;;20.85;44.22;99630.59;124743;1098;104264;-74
2023/03/25 09:17:22;;;;;;;15.77;7.00;;;;;;;20.78;42.93;99633.38;124854;1099;101820;-71
2023/03/25 09:19:53;;;;;;;18.00;7.80;;;;;;;20.74;42.52;99615.70;124480;1099;102334;-73
2023/03/25 09:22:24;;;;;;;14.30;6.90;;;;;;;20.71;42.54;99618.44;124778;1099;104341;-72
2023/03/25 09:24:55;;;;;;;18.07;7.57;;;;;;;20.73;42.52;99613.94;124812;1099;104210;-72
2023/03/25 09:27:27;;;;;;;15.77;7.23;;;;;;;20.77;41.31;99615.64;124832;1099;102479;-71
2023/03/25 09:29:58;;;;;;;14.83;7.20;;;;;;;20.89;41.56;99614.50;124775;1099;104268;-72
2023/03/25 09:32:29;;;;;;;16.10;7.07;;;;;;;21.01;41.85;99600.04;124805;1098;104242;-71
2023/03/25 09:35:00;;;;;;;13.87;6.57;;;;;;;20.97;39.51;99579.67;124839;1098;104304;-71
2023/03/25 09:37:31;;;;;;;12.03;6.50;;;;;;;20.93;38.56;99588.67;124877;1099;104274;-72
2023/03/25 09:40:04;;;;;;;15.47;6.93;;;;;;;20.88;40.66;99590.53;124862;1098;104222;-72
2023/03/25 09:43:03;;;;;;;18.40;7.03;;;;;;;20.81;40.42;99582.66;124827;1099;104163;-72
2023/03/25 09:45:39;;;;;;;18.00;7.15;;;;;;;20.77;36.77;99572.09;124372;1099;104233;-72
2023/03/25 09:48:25;;;;;;;15.80;7.10;;;;;;;20.82;38.59;99568.44;124883;1099;104182;-73
2023/03/25 09:50:58;;;;;;;17.73;6.60;;;;;;;20.85;39.13;99562.17;124622;1099;101849;-73
2023/03/25 09:53:36;;;;;;;13.30;6.60;;;;;;;20.92;37.94;99555.77;124955;1099;104228;-75
2023/03/25 09:56:16;;;;;;;13.13;6.57;;;;;;;21.09;39.17;99541.20;124923;1098;102161;-74
2023/03/25 09:58:50;;;;;;;18.43;6.57;;;;;;;21.27;38.92;99547.88;124843;1099;101965;-75
2023/03/25 10:01:36;;;;;;;14.67;6.67;;;;;;;21.42;38.30;99528.84;124902;1099;101961;-72
2023/03/25 10:04:29;;;;;;;13.30;6.00;;;;;;;21.65;38.10;99530.11;124933;1099;101884;-76
2023/03/25 10:07:10;;;;;;;12.53;6.23;;;;;;;21.83;38.28;99512.72;124436;1099;104335;-73
2023/03/25 10:09:50;;;;;;;14.25;6.35;;;;;;;21.87;37.43;99512.61;124320;1099;101862;-72
2023/03/25 10:12:34;;;;;;;14.43;6.17;;;;;;;21.93;36.65;99518.72;124811;1099;102968;-74
2023/03/25 10:15:18;;;;;;;17.05;5.92;;;;;;;22.02;36.92;99529.16;124748;1099;104181;-71
2023/03/25 10:18:04;;;;;;;14.00;6.40;;;;;;;22.00;36.99;99525.63;124847;1099;104217;-71
2023/03/25 10:20:53;;;;;;;19.53;7.93;;;;;;;21.86;36.96;99500.19;124783;1099;110684;-71
2023/03/25 10:23:32;;;;;;;12.90;6.03;;;;;;;21.75;37.17;99498.70;124768;1099;104238;-71
2023/03/25 10:26:10;;;;;;;19.23;6.53;;;;;;;21.66;37.12;99475.78;124787;1099;101953;-71
2023/03/25 10:28:48;;;;;;;12.93;5.93;;;;;;;21.62;36.12;99471.47;124745;1099;104217;-71
2023/03/25 10:31:24;;;;;;;13.27;6.10;;;;;;;21.62;36.70;99475.00;124651;1099;104249;-70
2023/03/25 10:33:57;;;;;;;9.47;6.10;;;;;;;21.61;36.87;99464.36;124770;1099;104198;-71
2023/03/25 10:36:33;;;;;;;22.23;6.77;;;;;;;21.60;35.82;99473.27;124803;1099;104263;-71
2023/03/25 10:39:13;;;;;;;12.67;5.83;;;;;;;21.56;35.80;99455.61;124739;1099;104287;-71
2023/03/25 10:41:46;;;;;;;12.47;6.80;;;;;;;21.59;35.53;99455.53;124720;1099;104179;-71
2023/03/25 10:44:18;;;;;;;17.90;6.45;;;;;;;21.57;36.10;99463.58;124347;1099;104165;-72
2023/03/25 10:46:55;;;;;;;13.93;6.37;;;;;;;21.50;36.18;99460.20;124803;1099;104176;-72
2023/03/25 10:49:30;;;;;;;15.57;6.20;;;;;;;21.47;35.39;99468.25;124790;1099;103190;-73
2023/03/25 10:52:02;;;;;;;11.73;5.87;;;;;;;21.44;35.64;99462.98;124784;1099;104178;-72
2023/03/25 10:54:39;;;;;;;13.75;6.35;;;;;;;21.47;36.09;99460.24;124799;1099;104173;-73
2023/03/25 10:57:16;;;;;;;15.70;6.93;;;;;;;21.42;35.88;99454.13;124825;1099;102348;-72
2023/03/25 10:59:56;;;;;;;14.57;7.23;;;;;;;21.45;35.79;99462.05;124739;1098;104195;-72
2023/03/25 11:02:31;;;;;;;14.67;7.23;;;;;;;21.48;36.47;99461.11;124806;1099;104214;-71
2023/03/25 11:05:05;;;;;;;13.30;6.50;;;;;;;21.40;35.09;99447.96;124736;1099;102587;-72
2023/03/25 11:07:39;;;;;;;19.50;6.70;;;;;;;21.33;36.04;99433.91;124775;1099;104204;-72
2023/03/25 11:10:18;;;;;;;13.07;5.77;;;;;;;21.21;34.51;99423.55;124794;1099;104316;-71
2023/03/25 11:12:51;;;;;;;13.27;6.27;;;;;;;21.13;36.13;99442.41;124787;1098;104268;-72
2023/03/25 11:15:26;;;;;;;14.68;6.40;;;;;;;21.07;34.75;99431.88;124765;1099;102255;-73
2023/03/25 11:18:04;;;;;;;13.50;6.40;;;;;;;20.97;35.21;99430.34;124789;1099;104195;-72
2023/03/25 11:20:41;;;;;;;16.87;6.80;;;;;;;20.93;35.26;99420.69;124786;1099;104341;-73
2023/03/25 11:23:22;;;;;;;13.57;6.33;;;;;;;20.99;35.03;99407.20;124767;1099;104517;-72
2023/03/25 11:25:56;;;;;;;13.17;6.43;;;;;;;21.04;35.19;99407.09;124742;1099;101894;-72
2023/03/25 11:28:37;;;;;;;15.10;6.50;;;;;;;21.07;35.11;99405.22;124807;1098;104233;-73
2023/03/25 11:31:11;;;;;;;15.47;6.30;;;;;;;21.08;35.43;99398.08;124800;1099;104191;-72
2023/03/25 11:33:44;;;;;;;16.73;6.33;;;;;;;21.04;34.77;99393.76;124794;1099;104309;-72
2023/03/25 11:36:29;;;;;;;10.77;6.17;;;;;;;21.01;34.91;99398.23;124798;1099;104213;-73
2023/03/25 11:39:04;;;;;;;11.10;6.10;;;;;;;21.06;34.61;99392.78;124833;1099;101904;-73
2023/03/25 11:41:37;;;;;;;13.77;6.50;;;;;;;21.15;34.72;99399.69;124839;1099;104204;-72